sensor_id;sensor_type;location;lat;lon;timestamp;pressure;altitude;pressure_sealevel;temperature;humidity
60087;BME280;45960;53.630;55.972;2023-03-20T00:00:50;101543.44;;;0.80;32.01
60087;BME280;45960;53.630;55.972;2023-03-20T00:01:51;101546.97;;;0.79;31.98
60087;BME280;45960;53.630;55.972;2023-03-20T00:02:53;101539.94;;;0.81;32.06
60087;BME280;45960;53.630;55.972;2023-03-20T00:03:54;101540.84;;;0.77;32.04
60087;BME280;45960;53.630;55.972;2023-03-20T00:04:55;101530.38;;;0.63;32.03
60087;BME280;45960;53.630;55.972;2023-03-20T00:05:57;101541.78;;;0.62;32.20
60087;BME280;45960;53.630;55.972;2023-03-20T00:06:58;101538.25;;;0.61;32.21
60087;BME280;45960;53.630;55.972;2023-03-20T00:07:59;101536.53;;;0.60;32.08
60087;BME280;45960;53.630;55.972;2023-03-20T00:09:00;101538.28;;;0.58;32.33
60087;BME280;45960;53.630;55.972;2023-03-20T00:10:02;101532.13;;;0.61;32.41
60087;BME280;45960;53.630;55.972;2023-03-20T00:11:04;101533.00;;;0.58;32.33
60087;BME280;45960;53.630;55.972;2023-03-20T00:12:05;101528.63;;;0.56;32.52
60087;BME280;45960;53.630;55.972;2023-03-20T00:13:12;101529.53;;;0.56;32.64
60087;BME280;45960;53.630;55.972;2023-03-20T00:14:16;101536.50;;;0.63;32.60
60087;BME280;45960;53.630;55.972;2023-03-20T00:15:31;101534.75;;;0.69;32.85
60087;BME280;45960;53.630;55.972;2023-03-20T00:16:36;101532.09;;;0.73;32.43
60087;BME280;45960;53.630;55.972;2023-03-20T00:17:37;101521.56;;;0.72;32.59
60087;BME280;45960;53.630;55.972;2023-03-20T00:18:38;101517.25;;;0.64;32.66
60087;BME280;45960;53.630;55.972;2023-03-20T00:19:41;101515.50;;;0.57;32.75
60087;BME280;45960;53.630;55.972;2023-03-20T00:20:44;101520.75;;;0.57;32.90
60087;BME280;45960;53.630;55.972;2023-03-20T00:21:46;101522.47;;;0.61;32.98
60087;BME280;45960;53.630;55.972;2023-03-20T00:22:48;101513.72;;;0.62;33.31
60087;BME280;45960;53.630;55.972;2023-03-20T00:23:49;101525.97;;;0.66;33.18
60087;BME280;45960;53.630;55.972;2023-03-20T00:24:50;101525.94;;;0.70;33.08
60087;BME280;45960;53.630;55.972;2023-03-20T00:25:51;101529.44;;;0.75;33.17
60087;BME280;45960;53.630;55.972;2023-03-20T00:26:53;101531.19;;;0.79;33.18
60087;BME280;45960;53.630;55.972;2023-03-20T00:27:54;101539.94;;;0.78;33.19
60087;BME280;45960;53.630;55.972;2023-03-20T00:28:56;101543.47;;;0.74;33.04
60087;BME280;45960;53.630;55.972;2023-03-20T00:29:58;101550.47;;;0.75;33.10
60087;BME280;45960;53.630;55.972;2023-03-20T00:30:59;101546.97;;;0.74;33.26
60087;BME280;45960;53.630;55.972;2023-03-20T00:32:00;101530.31;;;0.75;33.22
60087;BME280;45960;53.630;55.972;2023-03-20T00:33:01;101525.94;;;0.76;33.21
60087;BME280;45960;53.630;55.972;2023-03-20T00:34:13;101524.19;;;0.72;33.27
60087;BME280;45960;53.630;55.972;2023-03-20T00:35:27;101525.94;;;0.70;33.19
60087;BME280;45960;53.630;55.972;2023-03-20T00:36:29;101523.38;;;0.65;33.19
60087;BME280;45960;53.630;55.972;2023-03-20T00:37:30;101527.75;;;0.68;33.31
60087;BME280;45960;53.630;55.972;2023-03-20T00:38:31;101522.47;;;0.68;33.32
60087;BME280;45960;53.630;55.972;2023-03-20T00:39:32;101524.19;;;0.72;33.35
60087;BME280;45960;53.630;55.972;2023-03-20T00:40:35;101521.56;;;0.73;33.47
60087;BME280;45960;53.630;55.972;2023-03-20T00:41:53;101522.44;;;0.74;33.45
60087;BME280;45960;53.630;55.972;2023-03-20T00:43:00;101521.53;;;0.78;33.41
60087;BME280;45960;53.630;55.972;2023-03-20T00:44:55;101523.28;;;0.82;33.70
60087;BME280;45960;53.630;55.972;2023-03-20T00:45:37;101534.66;;;0.81;33.32
60087;BME280;45960;53.630;55.972;2023-03-20T00:46:38;101522.44;;;0.77;33.48
60087;BME280;45960;53.630;55.972;2023-03-20T00:47:40;101520.69;;;0.74;33.57
60087;BME280;45960;53.630;55.972;2023-03-20T00:48:42;101520.69;;;0.76;33.48
60087;BME280;45960;53.630;55.972;2023-03-20T00:49:46;101517.19;;;0.74;33.50
60087;BME280;45960;53.630;55.972;2023-03-20T00:50:47;101522.41;;;0.78;33.65
60087;BME280;45960;53.630;55.972;2023-03-20T00:51:49;101520.66;;;0.79;33.52
60087;BME280;45960;53.630;55.972;2023-03-20T00:52:52;101520.66;;;0.79;33.49
60087;BME280;45960;53.630;55.972;2023-03-20T00:53:53;101521.53;;;0.79;33.49
60087;BME280;45960;53.630;55.972;2023-03-20T00:54:54;101525.03;;;0.81;33.67
60087;BME280;45960;53.630;55.972;2023-03-20T00:55:55;101526.81;;;0.76;33.60
60087;BME280;45960;53.630;55.972;2023-03-20T00:58:04;101512.78;;;0.73;33.41
60087;BME280;45960;53.630;55.972;2023-03-20T00:59:08;101515.41;;;0.74;33.57
60087;BME280;45960;53.630;55.972;2023-03-20T01:00:40;101508.38;;;0.78;33.54
60087;BME280;45960;53.630;55.972;2023-03-20T01:01:41;101515.44;;;0.76;33.65
60087;BME280;45960;53.630;55.972;2023-03-20T01:02:43;101520.69;;;0.76;33.79
60087;BME280;45960;53.630;55.972;2023-03-20T01:03:44;101518.03;;;0.73;33.75
60087;BME280;45960;53.630;55.972;2023-03-20T01:04:45;101523.38;;;0.60;33.74
60087;BME280;45960;53.630;55.972;2023-03-20T01:05:49;101534.78;;;0.58;34.04
60087;BME280;45960;53.630;55.972;2023-03-20T01:06:50;101534.78;;;0.53;34.06
60087;BME280;45960;53.630;55.972;2023-03-20T01:07:52;101535.69;;;0.52;34.06
60087;BME280;45960;53.630;55.972;2023-03-20T01:08:53;101527.78;;;0.57;34.15
60087;BME280;45960;53.630;55.972;2023-03-20T01:09:59;101527.75;;;0.58;34.06
60087;BME280;45960;53.630;55.972;2023-03-20T01:11:01;101540.03;;;0.59;33.87
60087;BME280;45960;53.630;55.972;2023-03-20T01:12:03;101545.31;;;0.56;33.79
60087;BME280;45960;53.630;55.972;2023-03-20T01:13:05;101540.06;;;0.56;33.97
60087;BME280;45960;53.630;55.972;2023-03-20T01:14:14;101541.81;;;0.51;34.05
60087;BME280;45960;53.630;55.972;2023-03-20T01:15:22;101541.81;;;0.54;34.03
60087;BME280;45960;53.630;55.972;2023-03-20T01:16:25;101540.91;;;0.58;34.26
60087;BME280;45960;53.630;55.972;2023-03-20T01:17:27;101536.53;;;0.60;34.28
60087;BME280;45960;53.630;55.972;2023-03-20T01:18:29;101540.06;;;0.56;34.14
60087;BME280;45960;53.630;55.972;2023-03-20T01:19:31;101542.66;;;0.62;34.26
60087;BME280;45960;53.630;55.972;2023-03-20T01:20:32;101541.72;;;0.70;34.38
60087;BME280;45960;53.630;55.972;2023-03-20T01:21:33;101533.84;;;0.71;34.30
60087;BME280;45960;53.630;55.972;2023-03-20T01:22:34;101541.66;;;0.83;34.36
60087;BME280;45960;53.630;55.972;2023-03-20T01:23:35;101544.25;;;0.89;34.18
60087;BME280;45960;53.630;55.972;2023-03-20T01:24:36;101536.41;;;0.88;34.04
60087;BME280;45960;53.630;55.972;2023-03-20T01:25:38;101545.16;;;0.84;34.08
60087;BME280;45960;53.630;55.972;2023-03-20T01:26:41;101537.31;;;0.78;34.12
60087;BME280;45960;53.630;55.972;2023-03-20T01:27:49;101540.00;;;0.69;34.17
60087;BME280;45960;53.630;55.972;2023-03-20T01:28:51;101532.13;;;0.64;34.22
60087;BME280;45960;53.630;55.972;2023-03-20T01:29:53;101540.00;;;0.69;34.44
60087;BME280;45960;53.630;55.972;2023-03-20T01:30:54;101539.97;;;0.75;34.10
60087;BME280;45960;53.630;55.972;2023-03-20T01:31:55;101540.84;;;0.77;34.17
60087;BME280;45960;53.630;55.972;2023-03-20T01:33:00;101537.31;;;0.82;34.16
60087;BME280;45960;53.630;55.972;2023-03-20T01:34:03;101531.19;;;0.82;34.25
60087;BME280;45960;53.630;55.972;2023-03-20T01:35:07;101534.66;;;0.87;34.16
60087;BME280;45960;53.630;55.972;2023-03-20T01:36:10;101533.78;;;0.85;34.27
60087;BME280;45960;53.630;55.972;2023-03-20T01:37:16;101536.47;;;0.79;34.07
60087;BME280;45960;53.630;55.972;2023-03-20T01:38:21;101541.75;;;0.66;34.30
60087;BME280;45960;53.630;55.972;2023-03-20T01:39:32;101531.22;;;0.66;34.26
60087;BME280;45960;53.630;55.972;2023-03-20T01:41:42;101526.84;;;0.64;34.22
60087;BME280;45960;53.630;55.972;2023-03-20T01:42:43;101529.50;;;0.65;34.37
60087;BME280;45960;53.630;55.972;2023-03-20T01:43:45;101537.38;;;0.69;34.27
60087;BME280;45960;53.630;55.972;2023-03-20T01:44:47;101532.97;;;0.71;34.36
60087;BME280;45960;53.630;55.972;2023-03-20T01:46:19;101526.81;;;0.76;34.27
60087;BME280;45960;53.630;55.972;2023-03-20T01:47:24;101521.53;;;0.78;33.98
60087;BME280;45960;53.630;55.972;2023-03-20T01:50:32;101527.66;;;0.80;34.00
60087;BME280;45960;53.630;55.972;2023-03-20T01:51:47;101527.69;;;0.77;34.02
60087;BME280;45960;53.630;55.972;2023-03-20T01:53:06;101515.47;;;0.68;34.06
60087;BME280;45960;53.630;55.972;2023-03-20T01:54:15;101506.69;;;0.68;33.98
60087;BME280;45960;53.630;55.972;2023-03-20T01:55:27;101506.69;;;0.71;34.20
60087;BME280;45960;53.630;55.972;2023-03-20T01:56:36;101504.06;;;0.71;34.14
60087;BME280;45960;53.630;55.972;2023-03-20T01:57:39;101505.81;;;0.70;34.26
60087;BME280;45960;53.630;55.972;2023-03-20T01:58:44;101501.44;;;0.68;34.16
60087;BME280;45960;53.630;55.972;2023-03-20T01:59:50;101499.63;;;0.73;34.15
60087;BME280;45960;53.630;55.972;2023-03-20T02:00:52;101504.91;;;0.76;34.31
60087;BME280;45960;53.630;55.972;2023-03-20T02:01:55;101502.25;;;0.79;34.23
60087;BME280;45960;53.630;55.972;2023-03-20T02:02:57;101503.97;;;0.78;34.28
60087;BME280;45960;53.630;55.972;2023-03-20T02:04:39;101497.88;;;0.75;34.24
60087;BME280;45960;53.630;55.972;2023-03-20T02:05:44;101500.53;;;0.72;34.15
60087;BME280;45960;53.630;55.972;2023-03-20T02:06:45;101505.75;;;0.75;34.17
60087;BME280;45960;53.630;55.972;2023-03-20T02:08:10;101496.13;;;0.77;34.33
60087;BME280;45960;53.630;55.972;2023-03-20T02:09:15;101493.47;;;0.80;34.42
60087;BME280;45960;53.630;55.972;2023-03-20T02:10:19;101501.31;;;0.87;34.22
60087;BME280;45960;53.630;55.972;2023-03-20T02:11:38;101487.31;;;0.87;34.33
60087;BME280;45960;53.630;55.972;2023-03-20T02:12:40;101484.63;;;0.88;34.20
60087;BME280;45960;53.630;55.972;2023-03-20T02:13:44;101470.63;;;0.86;34.29
60087;BME280;45960;53.630;55.972;2023-03-20T02:14:47;101478.56;;;0.79;34.45
60087;BME280;45960;53.630;55.972;2023-03-20T02:16:18;101471.56;;;0.75;34.38
60087;BME280;45960;53.630;55.972;2023-03-20T02:17:55;101468.09;;;0.70;34.37
60087;BME280;45960;53.630;55.972;2023-03-20T02:18:57;101466.38;;;0.65;34.42
60087;BME280;45960;53.630;55.972;2023-03-20T02:20:26;101457.59;;;0.66;34.46
60087;BME280;45960;53.630;55.972;2023-03-20T02:22:07;101457.59;;;0.63;34.37
60087;BME280;45960;53.630;55.972;2023-03-20T02:25:13;101455.88;;;0.59;34.37
60087;BME280;45960;53.630;55.972;2023-03-20T02:26:56;101448.91;;;0.52;34.31
60087;BME280;45960;53.630;55.972;2023-03-20T02:41:49;101473.53;;;0.30;34.43
60087;BME280;45960;53.630;55.972;2023-03-20T02:42:55;101468.25;;;0.33;34.53
60087;BME280;45960;53.630;55.972;2023-03-20T02:44:09;101475.25;;;0.40;34.27
60087;BME280;45960;53.630;55.972;2023-03-20T02:45:16;101480.50;;;0.46;34.44
60087;BME280;45960;53.630;55.972;2023-03-20T02:49:02;101475.25;;;0.40;34.46
60087;BME280;45960;53.630;55.972;2023-03-20T02:49:56;101484.91;;;0.35;34.58
60087;BME280;45960;53.630;55.972;2023-03-20T02:51:58;101484.91;;;0.38;34.77
60087;BME280;45960;53.630;55.972;2023-03-20T02:56:36;101489.28;;;0.45;34.46
60087;BME280;45960;53.630;55.972;2023-03-20T02:59:03;101494.47;;;0.54;34.40
60087;BME280;45960;53.630;55.972;2023-03-20T03:01:26;101490.91;;;0.61;34.44
60087;BME280;45960;53.630;55.972;2023-03-20T03:02:37;101495.28;;;0.67;34.39
60087;BME280;45960;53.630;55.972;2023-03-20T03:04:50;101487.47;;;0.56;34.12
60087;BME280;45960;53.630;55.972;2023-03-20T03:06:56;101485.69;;;0.55;34.08
60087;BME280;45960;53.630;55.972;2023-03-20T03:07:59;101480.44;;;0.57;34.02
60087;BME280;45960;53.630;55.972;2023-03-20T03:10:18;101480.44;;;0.55;34.12
60087;BME280;45960;53.630;55.972;2023-03-20T03:11:20;101480.41;;;0.58;33.94
60087;BME280;45960;53.630;55.972;2023-03-20T03:12:27;101485.69;;;0.58;34.29
60087;BME280;45960;53.630;55.972;2023-03-20T03:13:35;101478.63;;;0.66;34.12
60087;BME280;45960;53.630;55.972;2023-03-20T03:14:47;101488.22;;;0.77;34.23
60087;BME280;45960;53.630;55.972;2023-03-20T03:15:53;101485.56;;;0.83;34.00
60087;BME280;45960;53.630;55.972;2023-03-20T03:16:57;101483.78;;;0.85;34.00
60087;BME280;45960;53.630;55.972;2023-03-20T03:18:03;101474.16;;;0.87;33.93
60087;BME280;45960;53.630;55.972;2023-03-20T03:19:21;101471.50;;;0.90;33.98
60087;BME280;45960;53.630;55.972;2023-03-20T03:20:32;101471.50;;;0.87;34.04
60087;BME280;45960;53.630;55.972;2023-03-20T03:21:36;101473.22;;;0.91;33.83
60087;BME280;45960;53.630;55.972;2023-03-20T03:22:39;101473.19;;;0.97;34.07
60087;BME280;45960;53.630;55.972;2023-03-20T03:23:47;101470.53;;;1.02;33.95
60087;BME280;45960;53.630;55.972;2023-03-20T03:24:51;101474.88;;;1.07;33.94
60087;BME280;45960;53.630;55.972;2023-03-20T03:25:54;101474.84;;;1.10;34.04
60087;BME280;45960;53.630;55.972;2023-03-20T03:26:57;101453.84;;;1.04;33.55
60087;BME280;45960;53.630;55.972;2023-03-20T03:28:04;101470.41;;;1.17;33.81
60087;BME280;45960;53.630;55.972;2023-03-20T03:29:13;101480.06;;;1.17;33.67
60087;BME280;45960;53.630;55.972;2023-03-20T03:30:24;101471.31;;;1.16;33.77
60087;BME280;45960;53.630;55.972;2023-03-20T03:31:30;101469.50;;;1.20;33.76
60087;BME280;45960;53.630;55.972;2023-03-20T03:32:35;101464.31;;;1.14;33.68
60087;BME280;45960;53.630;55.972;2023-03-20T03:33:38;101466.09;;;1.05;33.97
60087;BME280;45960;53.630;55.972;2023-03-20T03:34:40;101459.09;;;1.06;33.87
60087;BME280;45960;53.630;55.972;2023-03-20T03:35:44;101460.81;;;1.08;33.73
60087;BME280;45960;53.630;55.972;2023-03-20T03:37:59;101444.16;;;1.06;33.82
60087;BME280;45960;53.630;55.972;2023-03-20T03:41:36;101453.69;;;1.24;33.84
60087;BME280;45960;53.630;55.972;2023-03-20T03:43:05;101453.78;;;1.10;33.84
60087;BME280;45960;53.630;55.972;2023-03-20T03:44:34;101457.38;;;1.00;34.01
60087;BME280;45960;53.630;55.972;2023-03-20T03:45:55;101461.84;;;0.89;33.97
60087;BME280;45960;53.630;55.972;2023-03-20T03:47:21;101466.22;;;0.93;34.06
60087;BME280;45960;53.630;55.972;2023-03-20T03:48:29;101454.78;;;0.96;34.10
60087;BME280;45960;53.630;55.972;2023-03-20T03:49:35;101466.13;;;1.04;34.17
60087;BME280;45960;53.630;55.972;2023-03-20T03:50:43;101467.84;;;1.06;34.16
60087;BME280;45960;53.630;55.972;2023-03-20T03:51:55;101455.56;;;1.08;34.05
60087;BME280;45960;53.630;55.972;2023-03-20T03:53:02;101459.94;;;1.13;34.06
60087;BME280;45960;53.630;55.972;2023-03-20T03:54:18;101450.28;;;1.11;34.16
60087;BME280;45960;53.630;55.972;2023-03-20T03:55:44;101457.28;;;1.11;33.97
60087;BME280;45960;53.630;55.972;2023-03-20T03:56:50;101443.28;;;1.10;34.29
60087;BME280;45960;53.630;55.972;2023-03-20T03:57:56;101453.75;;;1.17;34.45
60087;BME280;45960;53.630;55.972;2023-03-20T03:59:01;101449.31;;;1.22;34.14
60087;BME280;45960;53.630;55.972;2023-03-20T04:00:06;101446.72;;;1.19;34.11
60087;BME280;45960;53.630;55.972;2023-03-20T04:01:15;101437.94;;;1.17;34.20
60087;BME280;45960;53.630;55.972;2023-03-20T04:02:18;101437.97;;;1.14;34.32
60087;BME280;45960;53.630;55.972;2023-03-20T04:03:23;101438.81;;;1.17;34.23
60087;BME280;45960;53.630;55.972;2023-03-20T04:04:28;101441.44;;;1.22;34.22
60087;BME280;45960;53.630;55.972;2023-03-20T04:05:31;101441.44;;;1.23;34.21
60087;BME280;45960;53.630;55.972;2023-03-20T04:06:36;101437.88;;;1.29;33.92
60087;BME280;45960;53.630;55.972;2023-03-20T04:07:37;101437.78;;;1.38;34.21
60087;BME280;45960;53.630;55.972;2023-03-20T04:08:39;101446.50;;;1.46;34.07
60087;BME280;45960;53.630;55.972;2023-03-20T04:09:41;101442.06;;;1.50;33.90
60087;BME280;45960;53.630;55.972;2023-03-20T04:10:43;101444.69;;;1.51;33.86
60087;BME280;45960;53.630;55.972;2023-03-20T04:11:49;101449.91;;;1.58;34.03
60087;BME280;45960;53.630;55.972;2023-03-20T04:12:51;101448.97;;;1.62;34.18
60087;BME280;45960;53.630;55.972;2023-03-20T04:13:52;101451.50;;;1.71;34.14
60087;BME280;45960;53.630;55.972;2023-03-20T04:14:53;101452.31;;;1.77;33.99
60087;BME280;45960;53.630;55.972;2023-03-20T04:15:57;101453.19;;;1.78;33.92
60087;BME280;45960;53.630;55.972;2023-03-20T04:17:00;101453.22;;;1.75;33.85
60087;BME280;45960;53.630;55.972;2023-03-20T04:18:02;101448.88;;;1.74;34.06
60087;BME280;45960;53.630;55.972;2023-03-20T04:19:04;101448.84;;;1.75;33.97
60087;BME280;45960;53.630;55.972;2023-03-20T04:20:07;101436.63;;;1.68;33.91
60087;BME280;45960;53.630;55.972;2023-03-20T04:21:08;101441.75;;;1.79;33.96
60087;BME280;45960;53.630;55.972;2023-03-20T04:22:10;101440.81;;;1.86;33.81
60087;BME280;45960;53.630;55.972;2023-03-20T04:23:12;101434.69;;;1.86;33.75
60087;BME280;45960;53.630;55.972;2023-03-20T04:24:13;101445.22;;;1.86;33.96
60087;BME280;45960;53.630;55.972;2023-03-20T04:25:22;101438.19;;;1.86;33.69
60087;BME280;45960;53.630;55.972;2023-03-20T04:26:27;101435.59;;;1.83;33.87
60087;BME280;45960;53.630;55.972;2023-03-20T04:27:28;101442.66;;;1.78;33.64
60087;BME280;45960;53.630;55.972;2023-03-20T04:28:30;101444.47;;;1.73;33.46
60087;BME280;45960;53.630;55.972;2023-03-20T04:29:44;101437.56;;;1.63;33.55
60087;BME280;45960;53.630;55.972;2023-03-20T04:31:14;101435.78;;;1.63;33.93
60087;BME280;45960;53.630;55.972;2023-03-20T04:32:42;101433.91;;;1.73;33.50
60087;BME280;45960;53.630;55.972;2023-03-20T04:33:51;101432.13;;;1.78;33.49
60087;BME280;45960;53.630;55.972;2023-03-20T04:35:00;101430.28;;;1.86;33.46
60087;BME280;45960;53.630;55.972;2023-03-20T04:36:20;101428.50;;;1.88;33.35
60087;BME280;45960;53.630;55.972;2023-03-20T04:37:22;101424.13;;;1.86;33.49
60087;BME280;45960;53.630;55.972;2023-03-20T04:38:31;101428.53;;;1.85;33.38
60087;BME280;45960;53.630;55.972;2023-03-20T04:39:33;101423.22;;;1.88;32.99
60087;BME280;45960;53.630;55.972;2023-03-20T04:40:36;101431.91;;;1.99;33.15
60087;BME280;45960;53.630;55.972;2023-03-20T04:41:37;101431.84;;;2.03;32.82
60087;BME280;45960;53.630;55.972;2023-03-20T04:42:38;101436.25;;;2.02;32.90
60087;BME280;45960;53.630;55.972;2023-03-20T04:43:40;101437.06;;;2.09;32.84
60087;BME280;45960;53.630;55.972;2023-03-20T04:44:42;101434.41;;;2.10;32.70
60087;BME280;45960;53.630;55.972;2023-03-20T04:45:43;101431.69;;;2.15;32.53
60087;BME280;45960;53.630;55.972;2023-03-20T04:46:44;101429.97;;;2.14;32.57
60087;BME280;45960;53.630;55.972;2023-03-20T04:47:49;101434.31;;;2.16;32.54
60087;BME280;45960;53.630;55.972;2023-03-20T04:48:54;101424.69;;;2.14;32.59
60087;BME280;45960;53.630;55.972;2023-03-20T04:49:56;101419.47;;;2.11;32.77
60087;BME280;45960;53.630;55.972;2023-03-20T04:50:57;101423.81;;;2.12;32.23
60087;BME280;45960;53.630;55.972;2023-03-20T04:52:17;101419.34;;;2.20;32.25
60087;BME280;45960;53.630;55.972;2023-03-20T04:53:18;101423.63;;;2.30;32.31
60087;BME280;45960;53.630;55.972;2023-03-20T04:54:24;101425.25;;;2.37;32.11
60087;BME280;45960;53.630;55.972;2023-03-20T04:55:25;101428.72;;;2.44;31.81
60087;BME280;45960;53.630;55.972;2023-03-20T04:56:28;101424.25;;;2.47;31.74
60087;BME280;45960;53.630;55.972;2023-03-20T04:57:42;101431.34;;;2.42;31.91
60087;BME280;45960;53.630;55.972;2023-03-20T04:58:45;101427.94;;;2.34;31.76
60087;BME280;45960;53.630;55.972;2023-03-20T04:59:46;101418.47;;;2.19;31.74
60087;BME280;45960;53.630;55.972;2023-03-20T05:00:47;101428.25;;;2.10;31.99
60087;BME280;45960;53.630;55.972;2023-03-20T05:01:50;101431.94;;;1.96;31.79
60087;BME280;45960;53.630;55.972;2023-03-20T05:02:51;101428.53;;;1.85;31.75
60087;BME280;45960;53.630;55.972;2023-03-20T05:03:53;101433.06;;;1.74;32.11
60087;BME280;45960;53.630;55.972;2023-03-20T05:05:03;101419.88;;;1.71;32.30
60087;BME280;45960;53.630;55.972;2023-03-20T05:06:07;101419.91;;;1.68;32.41
60087;BME280;45960;53.630;55.972;2023-03-20T05:07:08;101427.88;;;1.63;32.45
60087;BME280;45960;53.630;55.972;2023-03-20T05:08:22;101411.22;;;1.63;32.66
60087;BME280;45960;53.630;55.972;2023-03-20T05:09:27;101407.63;;;1.70;32.76
60087;BME280;45960;53.630;55.972;2023-03-20T05:10:29;101404.94;;;1.73;32.34
60087;BME280;45960;53.630;55.972;2023-03-20T05:11:37;101407.50;;;1.79;32.45
60087;BME280;45960;53.630;55.972;2023-03-20T05:12:50;101395.19;;;1.81;32.53
60087;BME280;45960;53.630;55.972;2023-03-20T05:14:04;101399.53;;;1.87;32.07
60087;BME280;45960;53.630;55.972;2023-03-20T05:15:29;101393.38;;;1.86;31.94
60087;BME280;45960;53.630;55.972;2023-03-20T05:17:08;101397.81;;;1.81;32.21
60087;BME280;45960;53.630;55.972;2023-03-20T05:18:28;101401.31;;;1.83;32.19
60087;BME280;45960;53.630;55.972;2023-03-20T05:19:49;101403.88;;;1.89;32.04
60087;BME280;45960;53.630;55.972;2023-03-20T05:21:16;101397.66;;;1.95;32.15
60087;BME280;45960;53.630;55.972;2023-03-20T05:22:31;101402.84;;;2.03;31.56
60087;BME280;45960;53.630;55.972;2023-03-20T05:23:44;101405.47;;;2.06;31.91
60087;BME280;45960;53.630;55.972;2023-03-20T05:24:54;101405.41;;;2.09;31.92
60087;BME280;45960;53.630;55.972;2023-03-20T05:26:05;101401.97;;;2.04;31.82
60087;BME280;45960;53.630;55.972;2023-03-20T05:27:26;101412.66;;;1.91;31.94
60087;BME280;45960;53.630;55.972;2023-03-20T05:28:56;101417.88;;;1.94;31.71
60087;BME280;45960;53.630;55.972;2023-03-20T05:30:16;101421.44;;;1.93;31.70
60087;BME280;45960;53.630;55.972;2023-03-20T05:31:38;101415.25;;;1.94;31.51
60087;BME280;45960;53.630;55.972;2023-03-20T05:32:57;101403.72;;;2.01;31.41
60087;BME280;45960;53.630;55.972;2023-03-20T05:34:02;101409.81;;;2.08;31.32
60087;BME280;45960;53.630;55.972;2023-03-20T05:35:27;101408.78;;;2.21;31.32
60087;BME280;45960;53.630;55.972;2023-03-20T05:36:37;101417.38;;;2.36;31.37
60087;BME280;45960;53.630;55.972;2023-03-20T05:38:01;101419.03;;;2.44;30.98
60087;BME280;45960;53.630;55.972;2023-03-20T05:39:15;101415.34;;;2.55;31.18
60087;BME280;45960;53.630;55.972;2023-03-20T05:40:35;101405.41;;;2.74;31.11
60087;BME280;45960;53.630;55.972;2023-03-20T05:41:51;101403.31;;;2.97;30.92
60087;BME280;45960;53.630;55.972;2023-03-20T05:43:18;101402.97;;;3.17;30.42
60087;BME280;45960;53.630;55.972;2023-03-20T05:44:51;101399.53;;;3.10;30.04
60087;BME280;45960;53.630;55.972;2023-03-20T05:46:13;101389.41;;;2.86;29.80
60087;BME280;45960;53.630;55.972;2023-03-20T05:47:14;101400.88;;;2.83;30.32
60087;BME280;45960;53.630;55.972;2023-03-20T05:48:30;101399.75;;;2.97;30.37
60087;BME280;45960;53.630;55.972;2023-03-20T05:49:50;101396.84;;;3.13;30.42
60087;BME280;45960;53.630;55.972;2023-03-20T05:51:10;101401.75;;;3.36;30.21
60087;BME280;45960;53.630;55.972;2023-03-20T05:52:23;101411.13;;;3.54;29.62
60087;BME280;45960;53.630;55.972;2023-03-20T05:53:51;101410.19;;;3.57;29.74
60087;BME280;45960;53.630;55.972;2023-03-20T05:55:22;101406.19;;;3.83;29.57
60087;BME280;45960;53.630;55.972;2023-03-20T05:56:56;101398.72;;;4.03;29.12
60087;BME280;45960;53.630;55.972;2023-03-20T05:57:57;101401.09;;;4.17;28.93
60087;BME280;45960;53.630;55.972;2023-03-20T05:59:24;101399.00;;;4.31;28.71
60087;BME280;45960;53.630;55.972;2023-03-20T06:00:44;101399.00;;;4.31;28.38
60087;BME280;45960;53.630;55.972;2023-03-20T06:02:15;101396.34;;;4.33;27.94
60087;BME280;45960;53.630;55.972;2023-03-20T06:03:24;101403.50;;;4.28;27.76
60087;BME280;45960;53.630;55.972;2023-03-20T06:04:34;101392.34;;;4.13;28.04
60087;BME280;45960;53.630;55.972;2023-03-20T06:06:06;101396.84;;;4.08;27.86
60087;BME280;45960;53.630;55.972;2023-03-20T06:07:08;101398.72;;;4.03;28.04
60087;BME280;45960;53.630;55.972;2023-03-20T06:08:11;101397.84;;;4.02;27.84
60087;BME280;45960;53.630;55.972;2023-03-20T06:09:12;101407.28;;;4.17;28.04
60087;BME280;45960;53.630;55.972;2023-03-20T06:10:14;101393.00;;;4.24;27.78
60087;BME280;45960;53.630;55.972;2023-03-20T06:11:15;101399.72;;;4.41;27.79
60087;BME280;45960;53.630;55.972;2023-03-20T06:12:17;101392.47;;;4.49;27.42
60087;BME280;45960;53.630;55.972;2023-03-20T06:13:18;101402.78;;;4.61;27.26
60087;BME280;45960;53.630;55.972;2023-03-20T06:14:20;101393.81;;;4.68;27.37
60087;BME280;45960;53.630;55.972;2023-03-20T06:15:29;101393.81;;;4.68;26.97
60087;BME280;45960;53.630;55.972;2023-03-20T06:16:38;101390.66;;;4.51;27.21
60087;BME280;45960;53.630;55.972;2023-03-20T06:17:39;101394.19;;;4.50;27.36
60087;BME280;45960;53.630;55.972;2023-03-20T06:18:41;101391.84;;;4.36;27.35
60087;BME280;45960;53.630;55.972;2023-03-20T06:19:43;101392.78;;;4.34;27.74
60087;BME280;45960;53.630;55.972;2023-03-20T06:20:44;101400.63;;;4.40;27.60
60087;BME280;45960;53.630;55.972;2023-03-20T06:21:45;101395.13;;;4.47;27.55
60087;BME280;45960;53.630;55.972;2023-03-20T06:22:49;101404.56;;;4.59;27.35
60087;BME280;45960;53.630;55.972;2023-03-20T06:23:50;101407.88;;;4.70;27.36
60087;BME280;45960;53.630;55.972;2023-03-20T06:24:52;101414.69;;;4.81;27.05
60087;BME280;45960;53.630;55.972;2023-03-20T06:25:53;101410.91;;;4.91;27.09
60087;BME280;45960;53.630;55.972;2023-03-20T06:26:55;101408.91;;;5.01;27.30
60087;BME280;45960;53.630;55.972;2023-03-20T06:27:56;101414.66;;;5.18;27.07
60087;BME280;45960;53.630;55.972;2023-03-20T06:28:58;101409.44;;;5.15;26.85
60087;BME280;45960;53.630;55.972;2023-03-20T06:30:00;101415.63;;;5.15;26.76
60087;BME280;45960;53.630;55.972;2023-03-20T06:31:06;101410.19;;;5.22;26.95